createdAt,value
2023-04-11T00:00:30.009Z,3.75
2023-04-11T00:03:01.714Z,3.63
2023-04-11T00:05:31.218Z,3.80
2023-04-11T00:07:57.768Z,4.28
2023-04-11T00:10:24.521Z,3.67
2023-04-11T00:12:52.908Z,3.90
2023-04-11T00:15:19.999Z,4.00
2023-04-11T00:17:46.541Z,4.00
2023-04-11T00:20:14.746Z,3.95
2023-04-11T00:22:41.997Z,4.03
2023-04-11T00:25:08.741Z,4.00
2023-04-11T00:27:35.392Z,4.32
2023-04-11T00:30:01.976Z,4.25
2023-04-11T00:32:28.779Z,4.70
2023-04-11T00:34:55.403Z,4.43
2023-04-11T00:37:22.153Z,4.13
2023-04-11T00:39:53.065Z,4.90
2023-04-11T00:42:19.979Z,4.80
2023-04-11T00:44:46.524Z,5.03
2023-04-11T00:47:13.520Z,4.47
2023-04-11T00:49:40.883Z,4.78
2023-04-11T00:52:07.805Z,5.00
2023-04-11T00:54:34.400Z,4.70
2023-04-11T00:57:02.096Z,4.55
2023-04-11T00:59:29.748Z,4.00
2023-04-11T01:01:57.164Z,4.60
2023-04-11T01:04:24.375Z,4.25
2023-04-11T01:06:54.361Z,4.20
2023-04-11T01:09:22.046Z,4.38
2023-04-11T01:11:51.906Z,4.20
2023-04-11T01:14:19.305Z,4.15
2023-04-11T01:16:50.650Z,4.53
2023-04-11T01:19:21.524Z,5.25
2023-04-11T01:21:50.201Z,5.55
2023-04-11T01:24:17.339Z,5.72
2023-04-11T01:26:44.048Z,5.60
2023-04-11T01:29:10.710Z,5.53
2023-04-11T01:31:38.273Z,4.20
2023-04-11T01:34:05.184Z,3.20
2023-04-11T01:36:32.287Z,2.80
2023-04-11T01:38:59.185Z,2.50
2023-04-11T01:41:28.126Z,2.42
2023-04-11T01:43:54.767Z,2.40
2023-04-11T01:46:21.853Z,2.55
2023-04-11T01:48:50.565Z,2.78
2023-04-11T01:51:17.251Z,2.70
2023-04-11T01:53:47.213Z,2.33
2023-04-11T01:56:14.518Z,2.50
2023-04-11T01:58:41.451Z,2.67
2023-04-11T02:01:08.080Z,3.10
2023-04-11T02:03:34.866Z,3.35
2023-04-11T02:06:01.645Z,3.20
2023-04-11T02:08:29.359Z,3.00
2023-04-11T02:10:55.866Z,4.00
2023-04-11T02:13:22.416Z,5.10
2023-04-11T02:15:48.951Z,5.00
2023-04-11T02:18:15.802Z,4.07
2023-04-11T02:20:42.314Z,3.63
2023-04-11T02:23:08.847Z,3.42
2023-04-11T02:25:35.426Z,3.42
2023-04-11T02:28:02.136Z,3.42
2023-04-11T02:30:29.123Z,3.25
2023-04-11T02:32:55.662Z,2.83
2023-04-11T02:35:22.242Z,3.20
2023-04-11T02:37:48.786Z,3.20
2023-04-11T02:40:15.447Z,4.35
2023-04-11T02:42:43.190Z,4.55
2023-04-11T02:45:11.792Z,3.20
2023-04-11T02:47:39.459Z,2.78
2023-04-11T02:50:08.185Z,2.60
2023-04-11T02:52:42.069Z,2.60
2023-04-11T02:55:10.199Z,2.40
2023-04-11T02:57:36.837Z,2.50
2023-04-11T03:00:07.216Z,2.13
2023-04-11T03:02:43.752Z,2.00
2023-04-11T03:05:12.213Z,2.20
2023-04-11T03:07:46.877Z,2.00
2023-04-11T03:10:13.408Z,1.90
2023-04-11T03:12:40.302Z,2.10
2023-04-11T03:15:09.173Z,2.13
2023-04-11T03:17:35.746Z,2.00
2023-04-11T03:20:07.091Z,2.22
2023-04-11T03:22:34.278Z,2.00
2023-04-11T03:25:01.047Z,2.20
2023-04-11T03:27:27.525Z,2.28
2023-04-11T03:29:58.865Z,2.30
2023-04-11T03:32:33.573Z,2.30
2023-04-11T03:35:01.788Z,2.40
2023-04-11T03:37:28.477Z,2.50
2023-04-11T03:39:54.931Z,2.50
2023-04-11T03:42:21.470Z,2.72
2023-04-11T03:44:52.939Z,2.70
2023-04-11T03:47:20.432Z,2.47
2023-04-11T03:49:50.961Z,2.30
2023-04-11T03:52:17.867Z,2.10
2023-04-11T03:54:49.916Z,2.10
2023-04-11T03:57:17.058Z,2.20
2023-04-11T03:59:44.038Z,2.40
2023-04-11T04:02:15.558Z,2.05
2023-04-11T04:04:48.578Z,2.40
2023-04-11T04:07:36.569Z,2.40
2023-04-11T04:10:11.130Z,2.15
2023-04-11T04:12:42.499Z,2.17
2023-04-11T04:15:14.906Z,2.47
2023-04-11T04:17:44.168Z,2.30
2023-04-11T04:20:23.073Z,2.33
2023-04-11T04:23:01.031Z,2.50
2023-04-11T04:25:42.045Z,2.30
2023-04-11T04:28:09.782Z,2.20
2023-04-11T04:30:39.148Z,2.40
2023-04-11T04:33:12.315Z,2.10
2023-04-11T04:35:45.688Z,2.70
2023-04-11T04:38:17.731Z,2.00
2023-04-11T04:40:54.699Z,2.05
2023-04-11T04:43:23.913Z,2.20
2023-04-11T04:46:01.559Z,2.30
2023-04-11T04:48:35.569Z,2.40
2023-04-11T04:51:04.264Z,2.30
2023-04-11T04:56:01.839Z,2.13
2023-04-11T04:58:31.288Z,2.17
2023-04-11T05:01:02.479Z,2.17
2023-04-11T05:03:34.832Z,2.33
2023-04-11T05:06:06.833Z,2.28
2023-04-11T05:08:34.283Z,2.85
2023-04-11T05:11:02.638Z,2.33
2023-04-11T05:13:34.041Z,2.10
2023-04-11T05:16:02.342Z,2.33
2023-04-11T05:18:33.123Z,2.25
2023-04-11T05:21:23.299Z,2.50
2023-04-11T05:23:53.205Z,2.25
2023-04-11T05:26:19.769Z,2.20
2023-04-11T05:28:46.902Z,2.80
2023-04-11T05:31:17.702Z,2.20
2023-04-11T05:33:45.091Z,2.22
2023-04-11T05:36:14.970Z,2.20
2023-04-11T05:38:42.269Z,2.60
2023-04-11T05:41:09.399Z,2.40
2023-04-11T05:43:36.249Z,2.65
2023-04-11T05:46:03.900Z,2.67
2023-04-11T05:48:31.190Z,2.40
2023-04-11T05:50:58.164Z,2.50
2023-04-11T05:53:24.791Z,2.50
2023-04-11T05:55:51.901Z,2.45
2023-04-11T05:58:18.403Z,2.50
2023-04-11T06:00:49.652Z,2.38
2023-04-11T06:03:17.024Z,2.50
2023-04-11T06:05:43.660Z,10.05
2023-04-11T06:08:11.498Z,4.70
2023-04-11T06:10:38.101Z,2.50
2023-04-11T06:13:04.741Z,3.30
2023-04-11T06:15:31.485Z,2.60
2023-04-11T06:17:57.987Z,3.00
2023-04-11T06:20:24.685Z,2.60
2023-04-11T06:22:51.459Z,2.80
2023-04-11T06:25:22.222Z,2.60
2023-04-11T06:27:48.736Z,2.83
2023-04-11T06:30:15.425Z,5.90
2023-04-11T06:32:42.076Z,4.18
2023-04-11T06:35:12.156Z,4.10
2023-04-11T06:37:38.690Z,3.10
2023-04-11T06:40:05.817Z,2.50
2023-04-11T06:42:32.502Z,3.67
2023-04-11T06:44:59.032Z,2.83
2023-04-11T06:47:25.727Z,12.68
2023-04-11T06:49:52.352Z,2.90
2023-04-11T06:52:18.896Z,4.57
2023-04-11T06:54:47.604Z,3.30
2023-04-11T06:57:14.128Z,3.60
2023-04-11T06:59:40.668Z,3.25
2023-04-11T07:02:07.932Z,4.32
2023-04-11T07:04:34.599Z,3.00
2023-04-11T07:07:01.230Z,3.55
2023-04-11T07:09:27.793Z,4.63
2023-04-11T07:11:54.348Z,3.40
2023-04-11T07:14:20.853Z,2.90
2023-04-11T07:16:47.533Z,3.25
2023-04-11T07:19:14.062Z,3.10
2023-04-11T07:21:40.625Z,3.97
2023-04-11T07:24:11.121Z,3.90
2023-04-11T07:26:38.828Z,5.18
2023-04-11T07:29:07.121Z,4.18
2023-04-11T07:31:36.235Z,4.60
2023-04-11T07:34:02.847Z,3.45
2023-04-11T07:36:29.369Z,3.55
2023-04-11T07:41:26.556Z,3.22
2023-04-11T07:43:53.174Z,2.85
2023-04-11T07:46:19.805Z,3.60
2023-04-11T07:48:46.376Z,4.70
2023-04-11T07:51:12.927Z,3.50
2023-04-11T07:53:39.507Z,5.40
2023-04-11T07:56:06.392Z,6.28
2023-04-11T07:58:32.884Z,4.80
2023-04-11T08:00:59.529Z,5.00
2023-04-11T08:03:27.134Z,4.72
2023-04-11T08:06:14.316Z,5.22
2023-04-11T08:08:41.123Z,3.47
2023-04-11T08:11:07.904Z,4.07
2023-04-11T08:13:34.504Z,5.32
2023-04-11T08:16:01.075Z,3.35
2023-04-11T08:18:27.643Z,3.55
2023-04-11T08:20:54.223Z,3.28
2023-04-11T08:23:21.672Z,4.20
2023-04-11T08:25:48.353Z,3.80
2023-04-11T08:28:15.221Z,7.70
2023-04-11T08:30:44.637Z,8.88
2023-04-11T08:33:12.206Z,3.53
2023-04-11T08:35:42.958Z,3.80
2023-04-11T08:38:12.781Z,4.40
2023-04-11T08:40:39.366Z,4.20
2023-04-11T08:43:11.921Z,4.60
2023-04-11T08:45:39.995Z,5.97
2023-04-11T08:48:07.410Z,4.40
2023-04-11T08:50:35.326Z,3.65
2023-04-11T08:53:03.057Z,4.35
2023-04-11T08:55:30.455Z,3.95
2023-04-11T08:57:59.678Z,4.35
2023-04-11T09:00:28.921Z,4.00
2023-04-11T09:03:03.609Z,3.72
2023-04-11T09:05:34.024Z,3.78
2023-04-11T09:08:03.766Z,3.50
2023-04-11T09:10:30.517Z,4.03
2023-04-11T09:12:57.772Z,3.80
2023-04-11T09:15:29.682Z,3.42
2023-04-11T09:17:59.675Z,3.70
2023-04-11T09:20:30.126Z,3.92
2023-04-11T09:25:27.635Z,3.50
2023-04-11T09:28:07.892Z,3.60
2023-04-11T09:30:34.933Z,3.92
2023-04-11T09:33:18.103Z,3.75
2023-04-11T09:35:47.885Z,3.80
2023-04-11T09:38:31.903Z,3.85
2023-04-11T09:40:59.066Z,3.72
2023-04-11T09:43:25.805Z,3.67
2023-04-11T09:46:12.069Z,3.40
2023-04-11T09:48:46.676Z,3.50
2023-04-11T09:51:21.073Z,4.68
2023-04-11T09:53:58.918Z,4.38
2023-04-11T09:56:26.569Z,4.18
2023-04-11T09:58:54.923Z,3.65
2023-04-11T10:01:22.101Z,3.95
2023-04-11T10:03:51.109Z,4.43
2023-04-11T10:06:59.631Z,4.50
2023-04-11T10:09:27.574Z,4.00
2023-04-11T10:11:54.119Z,3.40
2023-04-11T10:14:38.738Z,3.53
2023-04-11T10:17:14.036Z,3.50
2023-04-11T10:19:40.956Z,3.75
2023-04-11T10:22:07.664Z,4.72
2023-04-11T10:24:34.221Z,3.20
2023-04-11T10:27:06.160Z,3.22
2023-04-11T10:29:40.907Z,3.28
2023-04-11T10:32:16.493Z,4.22
2023-04-11T10:35:09.907Z,4.50
2023-04-11T10:37:37.193Z,3.63
2023-04-11T10:40:10.471Z,4.80
2023-04-11T10:42:43.870Z,4.10
2023-04-11T10:45:27.373Z,4.07
2023-04-11T10:47:57.152Z,4.47
2023-04-11T10:50:25.279Z,4.13
2023-04-11T10:52:55.329Z,4.68
2023-04-11T10:55:22.344Z,5.65
2023-04-11T10:58:09.967Z,6.15
2023-04-11T11:00:52.093Z,9.27
2023-04-11T11:03:19.441Z,4.70
2023-04-11T11:05:46.959Z,4.65
2023-04-11T11:08:13.640Z,3.50
2023-04-11T11:10:47.735Z,3.60
2023-04-11T11:13:15.693Z,5.50
2023-04-11T11:15:48.330Z,3.80
2023-04-11T11:18:16.050Z,3.33
2023-04-11T11:20:42.616Z,4.90
2023-04-11T11:23:11.666Z,3.40
2023-04-11T11:25:38.215Z,3.20
2023-04-11T11:28:09.132Z,3.50
2023-04-11T11:30:37.151Z,3.30
2023-04-11T11:33:20.645Z,3.40
2023-04-11T11:35:55.765Z,3.58
2023-04-11T11:38:26.586Z,3.42
2023-04-11T11:40:53.382Z,3.95
2023-04-11T11:43:20.086Z,3.50
2023-04-11T11:45:47.110Z,4.00
2023-04-11T11:48:24.171Z,3.45
2023-04-11T11:50:57.767Z,3.55
2023-04-11T11:53:26.077Z,4.38
2023-04-11T11:55:52.840Z,4.03
2023-04-11T11:58:19.934Z,3.80
2023-04-11T12:00:50.357Z,3.80
2023-04-11T12:03:24.762Z,3.80
2023-04-11T12:05:55.163Z,3.78
2023-04-11T12:08:22.292Z,3.80
2023-04-11T12:10:50.506Z,3.47
2023-04-11T12:13:25.564Z,3.30
2023-04-11T12:15:54.563Z,3.97
2023-04-11T12:18:26.179Z,4.32
2023-04-11T12:20:52.818Z,3.72
2023-04-11T12:23:19.787Z,3.70
2023-04-11T12:25:46.941Z,3.67
2023-04-11T12:28:14.031Z,4.13
2023-04-11T12:30:43.545Z,3.55
2023-04-11T12:33:10.179Z,4.03
2023-04-11T12:35:36.949Z,3.35
2023-04-11T12:38:04.196Z,2.80
2023-04-11T12:40:30.916Z,3.50
2023-04-11T12:42:57.749Z,3.15
2023-04-11T12:45:25.117Z,3.10
2023-04-11T12:47:51.994Z,2.80
2023-04-11T12:50:18.706Z,3.20
2023-04-11T12:52:45.415Z,3.67
2023-04-11T12:55:12.942Z,3.20
2023-04-11T12:57:39.673Z,3.10
2023-04-11T13:00:07.172Z,3.20
2023-04-11T13:02:42.064Z,3.25
2023-04-11T13:05:10.383Z,3.20
2023-04-11T13:07:36.970Z,3.10
2023-04-11T13:10:04.073Z,3.35
2023-04-11T13:12:31.290Z,2.97
2023-04-11T13:14:57.994Z,3.58
2023-04-11T13:17:24.731Z,3.50
2023-04-11T13:19:51.421Z,3.35
2023-04-11T13:22:18.104Z,3.00
2023-04-11T13:24:44.628Z,3.20
2023-04-11T13:27:11.103Z,3.30
2023-04-11T13:29:39.852Z,3.33
2023-04-11T13:32:06.504Z,3.00
2023-04-11T13:34:33.139Z,3.20
2023-04-11T13:37:00.249Z,2.80
2023-04-11T13:39:27.191Z,3.00
2023-04-11T13:41:53.724Z,3.15
2023-04-11T13:44:20.304Z,2.70
2023-04-11T13:46:46.862Z,3.13
2023-04-11T13:49:13.343Z,3.10
2023-04-11T13:51:40.133Z,2.95
2023-04-11T13:54:06.718Z,3.17
2023-04-11T13:56:33.332Z,3.00
2023-04-11T13:58:59.847Z,3.50
2023-04-11T14:01:26.620Z,3.30
2023-04-11T14:03:53.437Z,3.53
2023-04-11T14:06:20.030Z,3.08
2023-04-11T14:08:47.735Z,3.22
2023-04-11T14:11:15.335Z,3.20
2023-04-11T14:13:41.906Z,2.90
2023-04-11T14:16:09.675Z,2.92
2023-04-11T14:18:36.388Z,3.40
2023-04-11T14:21:04.802Z,3.20
2023-04-11T14:23:31.554Z,3.00
2023-04-11T14:25:58.155Z,3.13
2023-04-11T14:28:26.468Z,3.00
2023-04-11T14:30:53.782Z,3.45
2023-04-11T14:33:20.485Z,3.25
2023-04-11T14:35:47.357Z,3.15
2023-04-11T14:38:15.782Z,3.30
2023-04-11T14:40:43.051Z,3.13
2023-04-11T14:43:09.641Z,3.03
2023-04-11T14:45:37.602Z,3.05
2023-04-11T14:48:04.362Z,3.00
2023-04-11T14:50:31.223Z,2.95
2023-04-11T14:52:57.875Z,2.90
2023-04-11T14:55:24.384Z,3.00
2023-04-11T14:57:55.452Z,2.97
2023-04-11T15:00:24.734Z,3.20
2023-04-11T15:02:54.107Z,2.95
2023-04-11T15:07:49.291Z,2.97
2023-04-11T15:10:17.764Z,2.80
2023-04-11T15:12:44.552Z,3.08
2023-04-11T15:15:11.861Z,3.00
2023-04-11T15:17:49.296Z,3.03
2023-04-11T15:20:16.543Z,3.10
2023-04-11T15:22:45.004Z,2.70
2023-04-11T15:25:14.083Z,3.20
2023-04-11T15:27:41.659Z,3.03
2023-04-11T15:30:08.786Z,3.10
2023-04-11T15:32:35.463Z,3.10
2023-04-11T15:35:02.203Z,3.03
2023-04-11T15:37:29.056Z,3.47
2023-04-11T15:39:57.624Z,2.90
2023-04-11T15:42:24.539Z,3.00
2023-04-11T15:44:51.304Z,2.67
2023-04-11T15:47:18.351Z,3.10
2023-04-11T15:49:44.978Z,3.03
2023-04-11T15:52:11.858Z,3.67
2023-04-11T15:54:38.513Z,3.08
2023-04-11T15:57:05.215Z,3.45
2023-04-11T15:59:31.814Z,4.10
2023-04-11T16:01:58.484Z,3.17
2023-04-11T16:04:25.658Z,3.03
2023-04-11T16:06:52.586Z,2.90
2023-04-11T16:09:19.288Z,3.10
2023-04-11T16:11:46.012Z,3.00
2023-04-11T16:14:12.762Z,3.20
2023-04-11T16:16:39.420Z,3.60
2023-04-11T16:19:06.981Z,3.10
2023-04-11T16:21:33.556Z,3.80
2023-04-11T16:24:00.222Z,4.40
2023-04-11T16:26:27.264Z,3.40
2023-04-11T16:28:53.864Z,4.38
2023-04-11T16:31:24.557Z,4.07
2023-04-11T16:33:52.843Z,4.00
2023-04-11T16:36:20.363Z,3.53
2023-04-11T16:38:47.662Z,3.83
2023-04-11T16:41:16.222Z,3.55
2023-04-11T16:43:43.070Z,3.90
2023-04-11T16:46:14.146Z,3.75
2023-04-11T16:48:41.846Z,3.97
2023-04-11T16:51:12.544Z,3.85
2023-04-11T16:53:41.113Z,4.05
2023-04-11T16:56:07.895Z,3.92
2023-04-11T16:58:34.505Z,3.50
2023-04-11T17:01:01.735Z,3.70
2023-04-11T17:03:48.924Z,3.20
2023-04-11T17:06:16.186Z,3.17
2023-04-11T17:08:43.388Z,3.42
2023-04-11T17:11:11.209Z,10.10
2023-04-11T17:13:38.394Z,3.63
2023-04-11T17:16:06.091Z,4.05
2023-04-11T17:18:32.639Z,4.13
2023-04-11T17:20:59.550Z,4.15
2023-04-11T17:23:38.971Z,3.90
2023-04-11T17:26:08.816Z,5.10
2023-04-11T17:28:35.620Z,4.72
2023-04-11T17:31:06.733Z,4.15
2023-04-11T17:33:33.439Z,4.38
2023-04-11T17:36:00.568Z,3.88
2023-04-11T17:38:27.156Z,5.50
2023-04-11T17:40:57.527Z,5.25
2023-04-11T17:43:27.032Z,4.90
2023-04-11T17:45:54.740Z,5.25
2023-04-11T17:48:23.024Z,5.20
2023-04-11T17:50:50.996Z,5.18
2023-04-11T17:53:18.616Z,7.20
2023-04-11T17:55:48.525Z,5.30
2023-04-11T17:58:16.176Z,5.43
2023-04-11T18:00:54.931Z,5.40
2023-04-11T18:03:22.991Z,5.13
2023-04-11T18:05:51.033Z,5.35
2023-04-11T18:08:17.750Z,5.53
2023-04-11T18:10:44.280Z,5.20
2023-04-11T18:13:11.002Z,5.60
2023-04-11T18:15:37.942Z,5.65
2023-04-11T18:18:07.999Z,4.97
2023-04-11T18:20:34.711Z,5.65
2023-04-11T18:23:01.703Z,5.40
2023-04-11T18:25:28.497Z,6.47
2023-04-11T18:27:55.052Z,6.22
2023-04-11T18:30:21.802Z,6.65
2023-04-11T18:32:50.854Z,6.80
2023-04-11T18:35:18.431Z,6.90
2023-04-11T18:37:45.311Z,7.10
2023-04-11T18:40:13.903Z,6.40
2023-04-11T18:42:46.370Z,5.70
2023-04-11T18:45:14.932Z,5.93
2023-04-11T18:47:41.978Z,5.53
2023-04-11T18:50:09.014Z,5.32
2023-04-11T18:52:35.796Z,5.30
2023-04-11T18:55:03.373Z,5.47
2023-04-11T18:57:33.772Z,5.50
2023-04-11T19:00:12.869Z,5.07
2023-04-11T19:02:41.452Z,5.00
2023-04-11T19:05:13.627Z,5.10
2023-04-11T19:07:44.059Z,5.50
2023-04-11T19:10:11.622Z,5.85
2023-04-11T19:12:38.671Z,5.65
2023-04-11T19:15:07.753Z,6.50
2023-04-11T19:17:35.575Z,5.80
2023-04-11T19:20:06.788Z,5.53
2023-04-11T19:22:34.639Z,5.47
2023-04-11T19:25:01.432Z,5.45
2023-04-11T19:27:28.196Z,5.28
2023-04-11T19:29:54.886Z,5.22
2023-04-11T19:32:21.660Z,4.55
2023-04-11T19:34:49.664Z,4.93
2023-04-11T19:37:17.049Z,4.60
2023-04-11T19:39:45.096Z,4.50
2023-04-11T19:42:12.698Z,4.63
2023-04-11T19:44:39.948Z,4.88
2023-04-11T19:47:06.861Z,5.30
2023-04-11T19:49:33.567Z,5.32
2023-04-11T19:52:00.310Z,5.90
2023-04-11T19:54:26.992Z,5.25
2023-04-11T19:56:53.828Z,5.57
2023-04-11T19:59:20.711Z,8.68
2023-04-11T20:01:47.614Z,8.93
2023-04-11T20:04:16.260Z,8.07
2023-04-11T20:06:44.234Z,9.30
2023-04-11T20:09:17.729Z,8.00
2023-04-11T20:11:47.109Z,5.70
2023-04-11T20:14:13.854Z,4.40
2023-04-11T20:16:40.879Z,3.70
2023-04-11T20:19:10.923Z,4.10
2023-04-11T20:21:40.020Z,4.22
2023-04-11T20:24:14.487Z,4.07
2023-04-11T20:26:43.895Z,4.15
2023-04-11T20:29:14.614Z,4.60
2023-04-11T20:31:44.079Z,5.68
2023-04-11T20:34:11.539Z,5.65
2023-04-11T20:36:41.506Z,5.65
2023-04-11T20:39:09.830Z,5.00
2023-04-11T20:41:46.791Z,4.30
2023-04-11T20:44:27.051Z,4.45
2023-04-11T20:46:58.410Z,4.40
2023-04-11T20:49:31.719Z,4.45
2023-04-11T20:51:58.540Z,5.22
2023-04-11T20:54:26.348Z,4.85
2023-04-11T20:56:52.994Z,4.38
2023-04-11T20:59:22.272Z,4.05
2023-04-11T21:01:49.269Z,4.15
2023-04-11T21:04:18.128Z,4.20
2023-04-11T21:06:45.065Z,4.93
2023-04-11T21:09:12.084Z,6.50
2023-04-11T21:11:38.692Z,6.25
2023-04-11T21:14:05.291Z,6.10
2023-04-11T21:16:32.040Z,5.18
2023-04-11T21:18:58.876Z,5.05
2023-04-11T21:21:28.694Z,4.22
2023-04-11T21:23:55.695Z,4.40
2023-04-11T21:26:23.497Z,4.53
2023-04-11T21:28:49.997Z,4.10
2023-04-11T21:31:16.722Z,4.10
2023-04-11T21:33:45.922Z,4.28
2023-04-11T21:36:12.551Z,4.53
2023-04-11T21:38:39.061Z,4.30
2023-04-11T21:41:05.880Z,4.60
2023-04-11T21:43:32.376Z,4.30
2023-04-11T21:45:59.181Z,4.07
2023-04-11T21:48:25.758Z,4.32
2023-04-11T21:50:52.431Z,4.53
2023-04-11T21:53:19.785Z,4.13
2023-04-11T21:55:49.418Z,3.75
2023-04-11T21:58:28.569Z,4.00
2023-04-11T22:03:22.128Z,3.60
2023-04-11T22:05:52.896Z,3.75
2023-04-11T22:08:22.804Z,3.40
2023-04-11T22:10:50.877Z,3.70
2023-04-11T22:13:19.416Z,3.97
2023-04-11T22:15:48.621Z,4.10
2023-04-11T22:18:15.491Z,3.50
2023-04-11T22:20:45.749Z,3.85
2023-04-11T22:23:13.496Z,3.58
2023-04-11T22:25:43.881Z,3.60
2023-04-11T22:28:18.325Z,3.80
2023-04-11T22:30:48.323Z,3.47
2023-04-11T22:33:17.681Z,3.60
2023-04-11T22:35:47.678Z,3.63
2023-04-11T22:38:16.933Z,3.53
2023-04-11T22:40:43.427Z,3.50
2023-04-11T22:43:10.616Z,4.13
2023-04-11T22:45:37.218Z,3.92
2023-04-11T22:48:05.824Z,3.30
2023-04-11T22:50:37.872Z,3.67
2023-04-11T22:53:05.551Z,4.07
2023-04-11T22:55:35.654Z,3.40
2023-04-11T22:58:02.752Z,3.53
2023-04-11T23:00:30.034Z,3.42
2023-04-11T23:02:59.465Z,3.50
2023-04-11T23:07:52.510Z,3.75
2023-04-11T23:10:19.261Z,3.30
2023-04-11T23:12:50.228Z,3.30
2023-04-11T23:15:21.904Z,3.13
2023-04-11T23:17:49.146Z,3.42
2023-04-11T23:20:16.858Z,3.88
2023-04-11T23:22:44.208Z,3.42
2023-04-11T23:25:11.650Z,3.50
2023-04-11T23:27:38.660Z,3.72
2023-04-11T23:30:05.839Z,3.90
2023-04-11T23:32:32.608Z,3.58
2023-04-11T23:34:59.126Z,3.50
2023-04-11T23:37:27.260Z,3.22
2023-04-11T23:39:54.775Z,3.50
2023-04-11T23:42:21.544Z,3.78
2023-04-11T23:44:48.062Z,3.50
2023-04-11T23:47:14.580Z,3.50
2023-04-11T23:49:41.353Z,3.50
2023-04-11T23:52:08.074Z,3.50
2023-04-11T23:54:35.638Z,3.33
2023-04-11T23:57:02.282Z,3.30
2023-04-11T23:59:30.735Z,3.60
